createdAt,value
2018-09-03T00:01:16.188Z,44.27
2018-09-03T00:03:57.363Z,45.37
2018-09-03T00:06:38.622Z,41.87
2018-09-03T00:09:19.225Z,43.13
2018-09-03T00:11:59.610Z,43.07
2018-09-03T00:14:40.520Z,42.87
2018-09-03T00:17:21.704Z,41.70
2018-09-03T00:20:02.308Z,43.27
2018-09-03T00:22:43.465Z,43.37
2018-09-03T00:25:24.401Z,43.40
2018-09-03T00:28:05.583Z,41.83
2018-09-03T00:30:46.441Z,44.40
2018-09-03T00:33:32.805Z,44.83
2018-09-03T00:36:19.039Z,41.47
2018-09-03T00:39:04.812Z,46.37
2018-09-03T00:43:56.486Z,45.50
2018-09-03T00:46:42.556Z,44.00
2018-09-03T00:49:23.429Z,43.13
2018-09-03T00:52:04.202Z,47.00
2018-09-03T00:54:45.245Z,45.17
2018-09-03T00:57:26.187Z,46.00
2018-09-03T01:00:07.857Z,47.80
2018-09-03T01:02:48.721Z,45.40
2018-09-03T01:05:30.111Z,47.83
2018-09-03T01:08:10.960Z,43.47
2018-09-03T01:10:51.860Z,47.87
2018-09-03T01:13:32.278Z,45.50
2018-09-03T01:16:13.038Z,44.03
2018-09-03T01:18:56.208Z,47.43
2018-09-03T01:21:36.974Z,48.70
2018-09-03T01:24:17.725Z,48.20
2018-09-03T01:26:58.233Z,47.43
2018-09-03T01:29:38.843Z,45.83
2018-09-03T01:32:19.501Z,44.93
2018-09-03T01:35:00.456Z,47.33
2018-09-03T01:37:41.244Z,47.53
2018-09-03T01:40:22.276Z,46.20
2018-09-03T01:43:03.180Z,44.93
2018-09-03T01:45:44.361Z,44.80
2018-09-03T01:48:24.861Z,44.53
2018-09-03T01:51:05.430Z,43.63
2018-09-03T01:53:46.204Z,45.33
2018-09-03T01:56:26.693Z,46.30
2018-09-03T01:59:07.066Z,46.77
2018-09-03T02:01:47.479Z,47.03
2018-09-03T02:04:28.102Z,47.63
2018-09-03T02:07:09.152Z,48.50
2018-09-03T02:09:49.728Z,45.10
2018-09-03T02:12:30.283Z,46.53
2018-09-03T02:15:12.101Z,47.70
2018-09-03T02:17:53.006Z,47.40
2018-09-03T02:20:33.892Z,50.43
2018-09-03T02:23:14.759Z,48.80
2018-09-03T02:25:55.596Z,46.00
2018-09-03T02:28:36.358Z,50.47
2018-09-03T02:31:17.267Z,52.87
2018-09-03T02:33:58.399Z,50.63
2018-09-03T02:36:39.296Z,51.87
2018-09-03T02:39:19.747Z,52.23
2018-09-03T02:42:00.787Z,51.83
2018-09-03T02:44:41.580Z,51.70
2018-09-03T02:47:22.698Z,49.23
2018-09-03T02:50:03.650Z,51.00
2018-09-03T02:52:44.297Z,64.30
2018-09-03T02:55:24.812Z,49.90
2018-09-03T02:58:05.620Z,51.47
2018-09-03T03:00:46.085Z,50.60
2018-09-03T03:03:27.168Z,50.80
2018-09-03T03:06:07.616Z,52.23
2018-09-03T03:08:49.323Z,51.10
2018-09-03T03:11:30.148Z,48.30
2018-09-03T03:14:11.200Z,50.70
2018-09-03T03:16:51.631Z,49.27
2018-09-03T03:19:32.431Z,52.00
2018-09-03T03:22:13.228Z,50.40
2018-09-03T03:24:54.248Z,52.03
2018-09-03T03:27:34.638Z,52.23
2018-09-03T03:30:15.520Z,51.97
2018-09-03T03:32:57.281Z,52.40
2018-09-03T03:35:38.520Z,54.17
2018-09-03T03:38:19.261Z,53.33
2018-09-03T03:41:00.039Z,56.17
2018-09-03T03:43:41.179Z,53.17
2018-09-03T03:46:21.902Z,56.27
2018-09-03T03:49:02.466Z,52.33
2018-09-03T03:51:42.930Z,52.03
2018-09-03T03:54:24.069Z,49.93
2018-09-03T03:57:05.286Z,50.67
2018-09-03T03:59:46.191Z,50.40
2018-09-03T04:02:26.888Z,51.73
2018-09-03T04:05:08.140Z,51.87
2018-09-03T04:07:48.649Z,51.73
2018-09-03T04:10:29.441Z,55.93
2018-09-03T04:13:10.176Z,51.27
2018-09-03T04:15:51.268Z,53.50
2018-09-03T04:18:32.345Z,53.50
2018-09-03T04:21:12.848Z,52.97
2018-09-03T04:23:53.731Z,54.50
2018-09-03T04:26:34.790Z,51.83
2018-09-03T04:29:15.197Z,53.10
2018-09-03T04:31:55.921Z,51.57
2018-09-03T04:34:36.855Z,50.50
2018-09-03T04:37:17.669Z,54.33
2018-09-03T04:39:58.484Z,54.00
2018-09-03T04:42:38.971Z,58.47
2018-09-03T04:45:20.082Z,59.87
2018-09-03T04:48:01.248Z,55.03
2018-09-03T04:50:42.889Z,59.00
2018-09-03T04:53:23.796Z,60.70
2018-09-03T04:56:04.825Z,59.60
2018-09-03T04:58:45.362Z,59.53
2018-09-03T05:01:26.610Z,61.17
2018-09-03T05:04:07.222Z,57.73
2018-09-03T05:06:47.842Z,62.17
2018-09-03T05:09:29.734Z,59.50
2018-09-03T05:12:10.620Z,60.47
2018-09-03T05:14:51.742Z,62.23
2018-09-03T05:17:33.089Z,60.77
2018-09-03T05:20:13.819Z,61.27
2018-09-03T05:22:54.735Z,61.37
2018-09-03T05:25:35.593Z,59.00
2018-09-03T05:28:16.162Z,58.97
2018-09-03T05:30:57.100Z,56.80
2018-09-03T05:33:38.006Z,61.67
2018-09-03T05:36:18.393Z,60.13
2018-09-03T05:38:59.232Z,58.63
2018-09-03T05:41:39.948Z,59.50
2018-09-03T05:44:20.557Z,58.87
2018-09-03T05:47:01.186Z,60.80
2018-09-03T05:49:42.075Z,56.83
2018-09-03T05:52:24.545Z,58.03
2018-09-03T05:55:05.489Z,56.90
2018-09-03T05:57:46.342Z,59.63
2018-09-03T06:00:27.318Z,57.80
2018-09-03T06:03:08.425Z,62.47
2018-09-03T06:05:48.853Z,60.80
2018-09-03T06:08:30.506Z,63.50
2018-09-03T06:11:11.106Z,51.07
2018-09-03T06:13:52.045Z,56.97
2018-09-03T06:16:33.774Z,54.43
2018-09-03T06:19:14.757Z,56.13
2018-09-03T06:21:55.437Z,57.00
2018-09-03T06:24:36.791Z,54.43
2018-09-03T06:27:17.153Z,56.83
2018-09-03T06:29:58.130Z,54.63
2018-09-03T06:32:38.967Z,56.03
2018-09-03T06:35:19.749Z,53.77
2018-09-03T06:38:00.920Z,56.50
2018-09-03T06:40:42.018Z,58.30
2018-09-03T06:43:22.905Z,58.10
2018-09-03T06:46:03.469Z,54.53
2018-09-03T06:48:44.371Z,57.63
2018-09-03T06:51:25.160Z,52.40
2018-09-03T06:54:05.928Z,55.27
2018-09-03T06:56:47.149Z,54.20
2018-09-03T06:59:27.565Z,53.07
2018-09-03T07:02:09.335Z,52.63
2018-09-03T07:04:50.087Z,56.30
2018-09-03T07:07:31.202Z,55.07
2018-09-03T07:10:11.839Z,52.77
2018-09-03T07:12:52.600Z,50.57
2018-09-03T07:15:33.449Z,46.77
2018-09-03T07:18:13.885Z,48.27
2018-09-03T07:20:54.221Z,51.90
2018-09-03T07:23:35.673Z,49.07
2018-09-03T07:26:17.727Z,52.13
2018-09-03T07:28:59.124Z,46.13
2018-09-03T07:31:39.882Z,43.53
2018-09-03T07:34:20.591Z,43.13
2018-09-03T07:37:01.112Z,42.87
2018-09-03T07:39:42.023Z,38.70
2018-09-03T07:42:23.151Z,38.77
2018-09-03T07:45:04.560Z,40.30
2018-09-03T07:47:45.258Z,39.20
2018-09-03T07:50:25.675Z,38.23
2018-09-03T07:53:07.290Z,36.97
2018-09-03T07:55:48.682Z,38.37
2018-09-03T07:58:29.420Z,39.00
2018-09-03T08:01:10.404Z,37.07
2018-09-03T08:03:51.877Z,35.93
2018-09-03T08:06:32.871Z,35.70
2018-09-03T08:09:13.280Z,36.93
2018-09-03T08:11:54.072Z,36.53
2018-09-03T08:14:34.974Z,34.70
2018-09-03T08:17:15.896Z,31.50
2018-09-03T08:19:56.525Z,33.07
2018-09-03T08:22:37.317Z,32.37
2018-09-03T08:25:18.159Z,32.17
2018-09-03T08:27:59.320Z,31.87
2018-09-03T08:30:40.580Z,30.67
2018-09-03T08:33:21.013Z,30.97
2018-09-03T08:36:01.869Z,29.87
2018-09-03T08:38:42.821Z,28.97
2018-09-03T08:41:23.577Z,29.33
2018-09-03T08:44:04.326Z,28.07
2018-09-03T08:46:45.580Z,28.80
2018-09-03T08:49:26.795Z,28.50
2018-09-03T08:52:07.923Z,27.57
2018-09-03T08:54:48.413Z,25.67
2018-09-03T08:57:28.904Z,24.83
2018-09-03T09:00:10.104Z,27.87
2018-09-03T09:02:51.098Z,27.10
2018-09-03T09:05:32.225Z,28.90
2018-09-03T09:08:13.290Z,29.27
2018-09-03T09:10:53.862Z,25.87
2018-09-03T09:13:34.560Z,24.47
2018-09-03T09:16:16.432Z,26.40
2018-09-03T09:18:57.301Z,23.70
2018-09-03T09:21:38.402Z,23.37
2018-09-03T09:24:19.310Z,23.77
2018-09-03T09:27:00.347Z,21.63
2018-09-03T09:29:41.249Z,22.57
2018-09-03T09:32:21.948Z,23.33
2018-09-03T09:35:02.357Z,22.13
2018-09-03T09:37:42.841Z,23.50
2018-09-03T09:40:23.575Z,22.77
2018-09-03T09:43:05.057Z,23.33
2018-09-03T09:45:46.159Z,21.40
2018-09-03T09:48:27.013Z,18.53
2018-09-03T09:51:07.987Z,17.13
2018-09-03T09:53:48.444Z,16.47
2018-09-03T09:56:28.837Z,16.07
2018-09-03T09:59:09.252Z,15.90
2018-09-03T10:01:50.341Z,16.43
2018-09-03T10:04:30.823Z,12.30
2018-09-03T10:07:11.336Z,12.47
2018-09-03T10:09:52.089Z,12.50
2018-09-03T10:12:33.456Z,14.27
2018-09-03T10:15:14.320Z,15.90
2018-09-03T10:17:55.252Z,15.30
2018-09-03T10:20:37.079Z,15.70
2018-09-03T10:23:17.996Z,15.50
2018-09-03T10:25:58.656Z,15.07
2018-09-03T10:28:39.732Z,17.13
2018-09-03T10:31:20.732Z,18.93
2018-09-03T10:34:01.585Z,17.67
2018-09-03T10:36:42.181Z,16.53
2018-09-03T10:39:22.939Z,16.03
2018-09-03T10:42:03.840Z,16.37
2018-09-03T10:44:44.391Z,17.13
2018-09-03T10:47:25.025Z,18.87
2018-09-03T10:50:05.727Z,19.00
2018-09-03T10:52:46.522Z,18.80
2018-09-03T10:55:26.940Z,18.60
2018-09-03T10:58:07.961Z,18.00
2018-09-03T11:00:49.283Z,18.97
2018-09-03T11:03:30.296Z,20.53
2018-09-03T11:06:11.127Z,18.37
2018-09-03T11:08:52.031Z,19.60
2018-09-03T11:11:32.946Z,17.77
2018-09-03T11:14:13.642Z,18.47
2018-09-03T11:16:54.652Z,19.43
2018-09-03T11:19:40.266Z,19.77
2018-09-03T11:22:21.186Z,21.33
2018-09-03T11:25:01.860Z,21.07
2018-09-03T11:27:42.345Z,20.97
2018-09-03T11:30:23.573Z,20.43
2018-09-03T11:33:04.069Z,20.97
2018-09-03T11:35:44.615Z,20.53
2018-09-03T11:38:26.000Z,20.57
2018-09-03T11:41:06.553Z,21.10
2018-09-03T11:43:47.460Z,21.43
2018-09-03T11:46:28.115Z,21.77
2018-09-03T11:49:08.844Z,20.30
2018-09-03T11:51:49.261Z,19.27
2018-09-03T11:54:30.038Z,21.07
2018-09-03T11:57:11.468Z,21.03
2018-09-03T11:59:52.287Z,21.13
2018-09-03T12:02:32.630Z,20.60
2018-09-03T12:05:13.180Z,20.50
2018-09-03T12:07:53.772Z,19.40
2018-09-03T12:10:34.269Z,19.67
2018-09-03T12:13:14.833Z,20.67
2018-09-03T12:16:11.505Z,20.73
2018-09-03T12:18:52.994Z,20.90
2018-09-03T12:21:36.016Z,20.67
2018-09-03T12:24:16.451Z,21.07
2018-09-03T12:26:57.412Z,21.83
2018-09-03T12:29:38.697Z,21.47
2018-09-03T12:32:19.188Z,20.23
2018-09-03T12:35:00.033Z,22.20
2018-09-03T12:37:40.546Z,21.13
2018-09-03T12:40:21.658Z,21.53
2018-09-03T12:43:02.369Z,21.97
2018-09-03T12:45:48.240Z,22.47
2018-09-03T12:48:29.769Z,21.97
2018-09-03T12:51:10.373Z,21.63
2018-09-03T12:53:51.143Z,22.43
2018-09-03T12:56:32.090Z,22.63
2018-09-03T12:59:13.029Z,21.30
2018-09-03T13:01:53.581Z,21.00
2018-09-03T13:04:34.885Z,21.13
2018-09-03T13:07:15.850Z,21.73
2018-09-03T13:09:56.809Z,20.40
2018-09-03T13:12:37.627Z,20.40
2018-09-03T13:15:18.560Z,22.30
2018-09-03T13:17:59.468Z,21.07
2018-09-03T13:20:40.336Z,20.70
2018-09-03T13:23:21.417Z,18.43
2018-09-03T13:26:03.001Z,20.10
2018-09-03T13:28:43.789Z,20.17
2018-09-03T13:31:25.349Z,19.63
2018-09-03T13:34:06.772Z,18.43
2018-09-03T13:36:47.157Z,19.53
2018-09-03T13:39:28.268Z,17.70
2018-09-03T13:42:09.239Z,16.90
2018-09-03T13:44:50.157Z,18.37
2018-09-03T13:47:30.652Z,17.80
2018-09-03T13:50:11.804Z,16.70
2018-09-03T13:52:52.332Z,17.83
2018-09-03T13:55:32.975Z,18.50
2018-09-03T13:58:13.815Z,17.80
2018-09-03T14:00:54.192Z,18.57
2018-09-03T14:03:34.760Z,18.70
2018-09-03T14:06:15.536Z,18.30
2018-09-03T14:08:56.078Z,16.83
2018-09-03T14:11:36.887Z,18.93
2018-09-03T14:14:17.699Z,17.67
2018-09-03T14:16:58.756Z,17.10
2018-09-03T14:19:39.578Z,19.43
2018-09-03T14:22:20.667Z,16.67
2018-09-03T14:25:01.318Z,17.47
2018-09-03T14:27:42.316Z,17.13
2018-09-03T14:30:24.412Z,17.77
2018-09-03T14:33:04.951Z,18.40
2018-09-03T14:35:45.907Z,18.70
2018-09-03T14:38:27.041Z,18.47
2018-09-03T14:41:07.852Z,17.77
2018-09-03T14:43:48.636Z,17.60
2018-09-03T14:46:29.984Z,16.47
2018-09-03T14:49:10.759Z,17.17
2018-09-03T14:51:51.761Z,15.60
2018-09-03T14:54:32.196Z,15.63
2018-09-03T14:57:12.592Z,13.93
2018-09-03T14:59:53.456Z,13.03
2018-09-03T15:02:34.120Z,12.50
2018-09-03T15:05:14.893Z,12.90
2018-09-03T15:07:55.584Z,13.70
2018-09-03T15:10:36.566Z,13.20
2018-09-03T15:13:17.185Z,13.30
2018-09-03T15:15:58.065Z,13.93
2018-09-03T15:18:38.565Z,12.93
2018-09-03T15:21:19.779Z,14.07
2018-09-03T15:24:00.673Z,14.17
2018-09-03T15:26:41.728Z,13.47
2018-09-03T15:29:22.429Z,14.17
2018-09-03T15:32:03.275Z,13.97
2018-09-03T15:34:44.052Z,14.47
2018-09-03T15:37:25.192Z,13.20
2018-09-03T15:40:06.104Z,13.50
2018-09-03T15:42:47.619Z,13.53
2018-09-03T15:45:28.472Z,14.00
2018-09-03T15:48:09.232Z,13.90
2018-09-03T15:50:50.574Z,13.07
2018-09-03T15:53:31.610Z,14.33
2018-09-03T15:56:12.509Z,13.20
2018-09-03T15:58:53.473Z,13.40
2018-09-03T16:01:34.270Z,13.37
2018-09-03T16:04:14.877Z,12.63
2018-09-03T16:06:56.096Z,13.67
2018-09-03T16:09:36.656Z,14.67
2018-09-03T16:12:17.576Z,14.23
2018-09-03T16:14:58.811Z,12.40
2018-09-03T16:17:39.376Z,13.80
2018-09-03T16:20:20.312Z,13.63
2018-09-03T16:23:00.793Z,13.03
2018-09-03T16:25:42.064Z,12.93
2018-09-03T16:28:23.048Z,12.97
2018-09-03T16:31:03.742Z,14.37
2018-09-03T16:33:44.644Z,12.73
2018-09-03T16:36:25.666Z,13.30
2018-09-03T16:39:07.332Z,12.80
2018-09-03T16:41:48.134Z,13.53
2018-09-03T16:44:29.113Z,14.90
2018-09-03T16:47:10.209Z,15.40
2018-09-03T16:49:51.121Z,14.60
2018-09-03T16:52:31.533Z,14.67
2018-09-03T16:55:13.126Z,15.20
2018-09-03T16:57:54.237Z,14.53
2018-09-03T17:00:35.612Z,14.37
2018-09-03T17:03:16.186Z,14.27
2018-09-03T17:05:56.685Z,14.97
2018-09-03T17:08:37.141Z,15.63
2018-09-03T17:11:17.886Z,14.50
2018-09-03T17:13:59.068Z,16.27
2018-09-03T17:16:39.965Z,15.57
2018-09-03T17:19:20.821Z,16.30
2018-09-03T17:22:01.527Z,15.00
2018-09-03T17:24:42.808Z,15.20
2018-09-03T17:27:23.622Z,16.10
2018-09-03T17:30:04.411Z,15.53
2018-09-03T17:32:46.046Z,15.00
2018-09-03T17:35:27.950Z,15.90
2018-09-03T17:38:09.300Z,15.93
2018-09-03T17:40:50.244Z,16.17
2018-09-03T17:43:31.021Z,16.77
2018-09-03T17:46:11.852Z,17.90
2018-09-03T17:48:52.690Z,16.07
2018-09-03T17:51:33.567Z,16.20
2018-09-03T17:54:14.126Z,17.40
2018-09-03T17:56:55.120Z,16.87
2018-09-03T17:59:35.716Z,17.90
2018-09-03T18:02:17.397Z,18.20
2018-09-03T18:04:58.605Z,17.90
2018-09-03T18:07:39.592Z,18.83
2018-09-03T18:10:20.652Z,18.77
2018-09-03T18:13:01.164Z,20.37
2018-09-03T18:15:42.176Z,19.77
2018-09-03T18:18:23.042Z,19.07
2018-09-03T18:21:03.432Z,18.73
2018-09-03T18:23:43.894Z,18.57
2018-09-03T18:26:25.022Z,19.73
2018-09-03T18:29:05.869Z,19.37
2018-09-03T18:31:47.334Z,19.90
2018-09-03T18:34:28.245Z,20.13
2018-09-03T18:37:09.052Z,19.60
2018-09-03T18:39:49.934Z,19.57
2018-09-03T18:42:30.978Z,19.23
2018-09-03T18:45:11.572Z,19.73
2018-09-03T18:47:52.645Z,19.80
2018-09-03T18:50:33.522Z,18.43
2018-09-03T18:53:14.223Z,18.40
2018-09-03T18:55:55.094Z,18.50
2018-09-03T18:58:36.236Z,18.97
2018-09-03T19:01:16.998Z,19.87
2018-09-03T19:03:58.180Z,19.30
2018-09-03T19:06:38.999Z,20.30
2018-09-03T19:09:19.508Z,19.10
2018-09-03T19:12:00.861Z,18.93
2018-09-03T19:14:41.892Z,21.70
2018-09-03T19:17:22.778Z,20.03
2018-09-03T19:20:04.349Z,20.13
2018-09-03T19:22:45.654Z,19.87
2018-09-03T19:25:26.906Z,20.10
2018-09-03T19:28:09.645Z,20.93
2018-09-03T19:30:50.994Z,20.77
2018-09-03T19:33:31.511Z,20.30
2018-09-03T19:36:12.372Z,20.93
2018-09-03T19:38:53.032Z,21.13
2018-09-03T19:41:33.906Z,20.87
2018-09-03T19:44:14.795Z,21.03
2018-09-03T19:46:55.231Z,21.43
2018-09-03T19:49:35.788Z,21.80
2018-09-03T19:52:16.989Z,20.97
2018-09-03T19:54:57.384Z,20.77
2018-09-03T19:57:38.129Z,20.13
2018-09-03T20:00:18.502Z,19.67
2018-09-03T20:02:59.097Z,20.67
2018-09-03T20:05:40.448Z,19.67
2018-09-03T20:08:20.981Z,20.00
2018-09-03T20:11:01.749Z,20.13
2018-09-03T20:13:43.593Z,20.47
2018-09-03T20:16:24.228Z,20.90
2018-09-03T20:19:04.662Z,21.10
2018-09-03T20:21:45.572Z,21.07
2018-09-03T20:24:26.386Z,22.13
2018-09-03T20:27:07.225Z,21.57
2018-09-03T20:29:48.882Z,21.97
2018-09-03T20:32:29.509Z,22.90
2018-09-03T20:35:10.380Z,22.27
2018-09-03T20:37:51.721Z,21.60
2018-09-03T20:40:32.334Z,21.57
2018-09-03T20:43:13.287Z,21.13
2018-09-03T20:45:54.172Z,21.57
2018-09-03T20:48:34.719Z,22.13
2018-09-03T20:51:15.708Z,22.03
2018-09-03T20:53:56.616Z,21.80
2018-09-03T20:56:37.145Z,21.60
2018-09-03T20:59:17.830Z,21.50
2018-09-03T21:01:59.207Z,20.90
2018-09-03T21:04:40.035Z,22.30
2018-09-03T21:07:20.939Z,21.57
2018-09-03T21:10:01.951Z,21.73
2018-09-03T21:12:42.513Z,21.83
2018-09-03T21:15:23.523Z,20.80
2018-09-03T21:18:04.466Z,21.20
2018-09-03T21:20:45.726Z,20.20
2018-09-03T21:23:26.584Z,22.13
2018-09-03T21:26:07.864Z,21.33
2018-09-03T21:28:49.879Z,20.30
2018-09-03T21:31:30.468Z,21.07
2018-09-03T21:34:11.459Z,21.43
2018-09-03T21:36:52.632Z,20.50
2018-09-03T21:39:33.366Z,19.27
2018-09-03T21:42:13.956Z,21.30
2018-09-03T21:44:54.724Z,21.30
2018-09-03T21:47:35.474Z,21.07
2018-09-03T21:50:16.369Z,22.73
2018-09-03T21:52:58.101Z,21.13
2018-09-03T21:55:39.281Z,21.20
2018-09-03T21:58:20.124Z,21.90
2018-09-03T22:01:01.156Z,20.70
2018-09-03T22:03:42.231Z,22.13
2018-09-03T22:06:23.261Z,21.97
2018-09-03T22:09:04.748Z,22.87
2018-09-03T22:11:45.130Z,20.53
2018-09-03T22:14:26.171Z,21.33
2018-09-03T22:17:07.484Z,21.37
2018-09-03T22:19:48.136Z,22.10
2018-09-03T22:22:28.841Z,21.00
2018-09-03T22:25:09.367Z,22.13
2018-09-03T22:27:50.265Z,22.63
2018-09-03T22:30:31.003Z,22.93
2018-09-03T22:33:11.376Z,22.60
2018-09-03T22:35:52.553Z,22.23
2018-09-03T22:38:33.688Z,23.63
2018-09-03T22:41:14.653Z,23.90
2018-09-03T22:43:55.068Z,23.53
2018-09-03T22:46:35.963Z,24.40
2018-09-03T22:49:16.472Z,22.73
2018-09-03T22:51:57.484Z,23.57
2018-09-03T22:54:38.007Z,24.57
2018-09-03T22:57:18.713Z,24.00
2018-09-03T22:59:59.701Z,21.53
2018-09-03T23:02:42.548Z,24.17
2018-09-03T23:05:23.008Z,23.27
2018-09-03T23:08:03.612Z,23.57
2018-09-03T23:10:44.408Z,22.10
2018-09-03T23:13:25.484Z,23.50
2018-09-03T23:16:06.340Z,23.57
2018-09-03T23:18:47.532Z,23.67
2018-09-03T23:21:28.376Z,24.20
2018-09-03T23:24:09.326Z,23.97
2018-09-03T23:26:50.076Z,23.53
2018-09-03T23:29:31.117Z,23.67
2018-09-03T23:32:12.223Z,22.10
2018-09-03T23:34:53.065Z,23.80
2018-09-03T23:37:33.461Z,23.50
2018-09-03T23:40:14.314Z,24.60
2018-09-03T23:42:55.396Z,22.53
2018-09-03T23:45:35.962Z,23.57
2018-09-03T23:48:16.824Z,24.43
2018-09-03T23:50:57.709Z,22.83
2018-09-03T23:53:39.264Z,23.03
2018-09-03T23:56:20.556Z,21.23
2018-09-03T23:59:01.574Z,22.63
